Time;durP1;ratioP1;P1;durP2;ratioP2;P2;SDS_P1;SDS_P2;PMS_P1;PMS_P2;Temp;Humidity;BMP_temperature;BMP_pressure;BME280_temperature;BME280_humidity;BME280_pressure;Samples;Min_cycle;Max_cycle;Signal;HPM_P1;HPM_P2
2023/03/29 00:01:36;;;;;;;4.15;2.78;;;;;;;8.13;80.12;98488.47;4105979;28;20697;-86
2023/03/29 00:03:41;;;;;;;2.70;2.38;;;;;;;8.12;78.83;98479.84;4119557;28;20214;-87
2023/03/29 00:05:44;;;;;;;3.08;2.33;;;;;;;8.11;79.80;98475.53;4124213;28;20219;-87
2023/03/29 00:07:53;;;;;;;3.60;2.20;;;;;;;8.19;80.03;98462.97;4116240;28;20799;-86
2023/03/29 00:09:56;;;;;;;3.40;2.65;;;;;;;8.31;79.46;98471.91;4120420;28;20235;-87
2023/03/29 00:12:00;;;;;;;4.88;3.00;;;;;;;8.40;77.85;98484.41;4123247;28;20206;-87
2023/03/29 00:14:03;;;;;;;3.28;2.38;;;;;;;8.44;77.96;98487.59;4120686;28;20214;-87
2023/03/29 00:16:07;;;;;;;3.53;2.58;;;;;;;8.49;78.34;98476.94;4119717;28;20257;-87
2023/03/29 00:18:12;;;;;;;5.35;2.67;;;;;;;8.52;77.91;98489.78;4109249;28;20208;-86
2023/03/29 00:20:15;;;;;;;4.15;2.33;;;;;;;8.55;78.79;98472.28;4106320;28;20284;-87
2023/03/29 00:22:18;;;;;;;4.80;2.55;;;;;;;8.60;78.32;98474.59;4121781;28;20231;-86
2023/03/29 00:24:22;;;;;;;3.38;2.50;;;;;;;8.59;78.75;98468.56;4121234;28;20216;-86
2023/03/29 00:26:25;;;;;;;2.63;2.27;;;;;;;8.66;78.34;98463.88;4132942;28;20211;-87
2023/03/29 00:28:29;;;;;;;3.10;2.20;;;;;;;8.69;77.76;98480.16;4101145;28;20652;-86
2023/03/29 00:30:32;;;;;;;4.00;2.30;;;;;;;8.71;77.48;98478.31;4137194;28;20218;-86
2023/03/29 00:32:36;;;;;;;2.80;2.40;;;;;;;8.76;78.58;98488.44;4121591;28;20577;-87
2023/03/29 00:34:44;;;;;;;4.95;2.58;;;;;;;8.79;78.52;98475.28;4113660;28;20288;-87
2023/03/29 00:36:49;;;;;;;2.80;2.55;;;;;;;8.85;78.12;98475.78;4117581;28;20208;-87
2023/03/29 00:38:52;;;;;;;3.63;2.28;;;;;;;8.89;77.70;98472.09;4136128;28;20202;-86
2023/03/29 00:40:55;;;;;;;3.67;2.20;;;;;;;8.93;77.75;98474.44;4119130;28;20823;-86
2023/03/29 00:42:59;;;;;;;3.05;2.60;;;;;;;8.97;78.34;98469.88;4134280;28;20311;-86
2023/03/29 00:45:05;;;;;;;3.13;2.55;;;;;;;9.00;78.73;98467.94;4136270;28;20665;-87
2023/03/29 00:47:09;;;;;;;5.63;2.50;;;;;;;9.00;77.89;98470.53;4109185;28;20212;-87
2023/03/29 00:49:12;;;;;;;2.80;2.40;;;;;;;9.01;77.68;98472.25;4140145;28;20601;-86
2023/03/29 00:51:19;;;;;;;3.72;2.83;;;;;;;9.03;77.91;98466.94;4135318;28;20212;-87
2023/03/29 00:53:27;;;;;;;5.07;2.60;;;;;;;9.02;78.60;98468.72;4125268;28;20208;-86
2023/03/29 00:55:35;;;;;;;3.95;2.38;;;;;;;9.03;78.12;98465.19;4121684;28;20250;-86
2023/03/29 00:57:39;;;;;;;2.90;2.60;;;;;;;9.03;77.40;98472.97;4123091;28;20220;-86
2023/03/29 00:59:43;;;;;;;3.53;2.40;;;;;;;9.04;78.60;98466.03;4129036;28;20662;-86
2023/03/29 01:01:52;;;;;;;2.90;2.60;;;;;;;9.05;77.86;98462.50;4120775;28;20207;-86
2023/03/29 01:04:01;;;;;;;2.80;2.10;;;;;;;8.99;76.93;98450.69;4118633;28;20695;-87
2023/03/29 01:06:07;;;;;;;2.78;2.30;;;;;;;8.98;77.04;98456.81;4106141;28;20236;-86
2023/03/29 01:08:16;;;;;;;3.08;2.70;;;;;;;8.95;77.19;98456.97;4123864;28;20251;-86
2023/03/29 01:10:26;;;;;;;3.05;2.58;;;;;;;8.94;78.35;98459.66;4111714;28;20217;-87
2023/03/29 01:12:34;;;;;;;3.70;2.50;;;;;;;8.87;78.17;98447.94;4142165;28;20211;-86
2023/03/29 01:14:40;;;;;;;3.00;2.25;;;;;;;8.86;77.17;98445.44;4127303;28;20633;-86
2023/03/29 01:16:46;;;;;;;3.17;2.22;;;;;;;8.85;77.94;98438.53;4140236;28;20211;-86
2023/03/29 01:18:51;;;;;;;2.58;2.35;;;;;;;8.84;78.37;98436.84;4125513;28;20242;-87
2023/03/29 01:21:15;;;;;;;4.50;2.70;;;;;;;8.82;77.91;98430.91;4122226;28;20211;-86
2023/03/29 01:23:36;;;;;;;2.40;2.20;;;;;;;8.80;77.71;98427.56;4116944;28;20246;-86
2023/03/29 01:25:44;;;;;;;3.17;2.60;;;;;;;8.73;78.52;98418.41;4112905;28;20212;-86
2023/03/29 01:27:51;;;;;;;2.90;2.53;;;;;;;8.71;78.36;98412.47;4127807;28;20736;-86
2023/03/29 01:29:56;;;;;;;4.55;2.60;;;;;;;8.68;78.72;98412.66;4130242;28;20232;-86
2023/03/29 01:32:03;;;;;;;3.50;2.20;;;;;;;8.63;79.00;98402.50;4113922;28;20209;-86
2023/03/29 01:34:10;;;;;;;3.92;2.50;;;;;;;8.61;79.92;98408.69;4128246;28;20630;-86
2023/03/29 01:36:17;;;;;;;3.53;2.50;;;;;;;8.61;78.52;98401.72;4128530;28;20794;-87
2023/03/29 01:38:24;;;;;;;5.35;2.92;;;;;;;8.55;78.82;98391.69;4110101;28;20361;-86
2023/03/29 01:40:27;;;;;;;3.30;2.77;;;;;;;8.52;80.50;98396.22;4124838;28;20230;-86
2023/03/29 01:42:35;;;;;;;2.92;2.50;;;;;;;8.47;78.91;98382.63;4111676;28;20722;-87
2023/03/29 01:44:47;;;;;;;3.38;2.75;;;;;;;8.45;80.36;98381.91;4121953;28;20203;-86
2023/03/29 01:46:53;;;;;;;3.40;2.60;;;;;;;8.44;79.02;98380.22;4124873;28;20287;-86
2023/03/29 01:48:58;;;;;;;3.92;2.70;;;;;;;8.44;80.57;98372.41;4121641;28;20234;-86
2023/03/29 01:51:05;;;;;;;2.95;2.50;;;;;;;8.45;79.29;98368.91;4120985;28;20200;-86
2023/03/29 01:53:11;;;;;;;4.68;2.85;;;;;;;8.42;80.57;98366.47;4134473;28;20582;-86
2023/03/29 01:55:19;;;;;;;3.53;2.85;;;;;;;8.40;80.24;98362.28;4124025;28;21462;-86
2023/03/29 01:57:23;;;;;;;3.85;2.60;;;;;;;8.42;80.69;98369.06;4125484;28;20215;-87
2023/03/29 01:59:29;;;;;;;3.22;2.60;;;;;;;8.44;80.15;98367.22;4137086;28;20208;-86
2023/03/29 02:01:37;;;;;;;2.90;2.05;;;;;;;8.44;80.68;98363.78;4121754;28;20723;-86
2023/03/29 02:03:42;;;;;;;3.70;2.50;;;;;;;8.46;79.75;98362.75;4123555;28;20602;-86
2023/03/29 02:05:46;;;;;;;2.53;2.10;;;;;;;8.46;80.06;98357.56;4106438;28;20212;-86
2023/03/29 02:07:50;;;;;;;3.00;2.47;;;;;;;8.46;79.40;98357.56;4119441;28;20359;-86
2023/03/29 02:09:54;;;;;;;3.45;2.60;;;;;;;8.46;80.30;98355.81;4118656;28;20228;-87
2023/03/29 02:11:59;;;;;;;3.00;2.67;;;;;;;8.48;80.13;98356.56;4110611;28;20767;-86
2023/03/29 02:14:02;;;;;;;3.45;2.63;;;;;;;8.50;80.28;98353.88;4136819;28;20639;-87
2023/03/29 02:16:10;;;;;;;2.77;2.47;;;;;;;8.56;79.70;98350.94;4107142;28;20673;-87
2023/03/29 02:18:17;;;;;;;2.92;2.42;;;;;;;8.52;80.30;98362.41;4122477;28;20642;-87
2023/03/29 02:20:24;;;;;;;3.70;2.45;;;;;;;8.48;79.88;98351.38;4129807;28;20293;-87
2023/03/29 02:22:29;;;;;;;2.22;2.00;;;;;;;8.47;78.53;98351.44;4108861;28;20218;-86
2023/03/29 02:24:33;;;;;;;3.75;2.80;;;;;;;8.43;80.13;98344.75;4106009;28;20654;-86
2023/03/29 02:26:37;;;;;;;3.77;2.27;;;;;;;8.42;79.58;98343.09;4119448;28;20704;-86
2023/03/29 02:28:41;;;;;;;3.58;2.58;;;;;;;8.45;80.15;98324.72;4121713;28;20630;-86
2023/03/29 02:30:49;;;;;;;2.88;2.58;;;;;;;8.44;79.68;98322.22;4122401;28;20215;-86
2023/03/29 02:32:56;;;;;;;3.67;2.50;;;;;;;8.43;80.55;98316.16;4100740;28;20209;-86
2023/03/29 02:35:05;;;;;;;3.08;2.45;;;;;;;8.42;79.10;98317.09;4120913;28;20203;-86
2023/03/29 02:37:10;;;;;;;6.40;2.55;;;;;;;8.41;80.68;98312.81;4117024;28;20738;-86
2023/03/29 02:39:15;;;;;;;3.15;2.70;;;;;;;8.41;80.21;98312.81;4134854;28;20213;-86
2023/03/29 02:41:18;;;;;;;3.65;2.40;;;;;;;8.41;80.32;98320.63;4103377;28;20338;-86
2023/03/29 02:43:23;;;;;;;3.90;3.20;;;;;;;8.44;80.19;98319.63;4103307;28;20284;-86
2023/03/29 02:45:28;;;;;;;3.22;2.45;;;;;;;8.42;79.69;98314.50;4121596;28;20215;-86
2023/03/29 02:47:35;;;;;;;3.78;2.72;;;;;;;8.41;79.00;98312.81;4119426;28;20310;-86
2023/03/29 02:49:39;;;;;;;3.08;2.53;;;;;;;8.42;79.58;98311.91;4107627;28;20630;-86
2023/03/29 02:51:46;;;;;;;4.75;2.60;;;;;;;8.43;80.48;98313.56;4133972;28;20209;-86
2023/03/29 02:53:52;;;;;;;4.80;2.72;;;;;;;8.43;80.67;98318.75;4125317;28;20664;-86
2023/03/29 02:55:55;;;;;;;2.45;2.22;;;;;;;8.46;80.06;98321.19;4125776;28;20208;-86
2023/03/29 02:57:58;;;;;;;5.97;2.50;;;;;;;8.48;81.06;98319.34;4106269;28;20205;-86
2023/03/29 03:00:08;;;;;;;2.67;2.42;;;;;;;8.47;80.56;98312.47;4097813;28;20205;-86
2023/03/29 03:02:12;;;;;;;3.05;2.47;;;;;;;8.49;80.87;98306.28;4118152;28;20214;-86
2023/03/29 03:04:17;;;;;;;2.85;2.42;;;;;;;8.49;80.82;98305.41;4101082;28;20241;-86
2023/03/29 03:06:21;;;;;;;2.88;2.03;;;;;;;8.48;80.33;98301.16;4120648;28;20213;-86
2023/03/29 03:08:26;;;;;;;3.65;2.30;;;;;;;8.45;79.76;98290.94;4119431;28;20212;-86
2023/03/29 03:10:29;;;;;;;2.70;2.33;;;;;;;8.44;80.03;98285.84;4131978;28;20227;-86
2023/03/29 03:12:32;;;;;;;5.50;2.80;;;;;;;8.43;80.18;98279.78;4138461;28;20218;-86
2023/03/29 03:14:36;;;;;;;2.63;2.00;;;;;;;8.41;80.62;98279.03;4104507;28;20650;-87
2023/03/29 03:16:39;;;;;;;3.20;2.70;;;;;;;8.41;79.89;98276.44;4138426;28;20448;-86
2023/03/29 03:18:44;;;;;;;3.10;2.75;;;;;;;8.42;79.99;98280.72;4123357;28;20204;-86
2023/03/29 03:20:55;;;;;;;4.65;3.10;;;;;;;8.41;80.04;98273.84;4104614;28;20649;-86
2023/03/29 03:22:59;;;;;;;3.08;2.50;;;;;;;8.43;80.23;98271.97;4121438;28;20614;-86
2023/03/29 03:25:05;;;;;;;3.55;2.50;;;;;;;8.44;80.43;98271.06;4105401;28;20208;-87
2023/03/29 03:27:08;;;;;;;2.80;2.38;;;;;;;8.45;79.68;98267.56;4124375;28;20220;-86
2023/03/29 03:29:11;;;;;;;6.28;2.40;;;;;;;8.44;80.88;98264.09;4134058;28;20584;-86
2023/03/29 03:31:41;;;;;;;2.85;2.47;;;;;;;8.47;80.40;98260.50;4108666;28;20234;-86
2023/03/29 03:34:00;;;;;;;2.80;2.45;;;;;;;8.49;79.37;98263.84;4109994;28;20653;-86
2023/03/29 03:36:18;;;;;;;4.00;2.80;;;;;;;8.51;79.35;98259.41;4139570;28;20234;-87
2023/03/29 03:38:21;;;;;;;3.70;2.65;;;;;;;8.52;79.20;98254.13;4107301;28;20224;-86
2023/03/29 03:40:33;;;;;;;3.60;3.10;;;;;;;8.53;80.05;98250.56;4110002;28;20287;-86
2023/03/29 03:42:36;;;;;;;5.70;2.70;;;;;;;8.54;81.18;98251.44;4118196;28;20212;-86
2023/03/29 03:44:39;;;;;;;3.60;2.55;;;;;;;8.54;80.57;98256.63;4112017;28;20652;-86
2023/03/29 03:47:02;;;;;;;2.65;2.45;;;;;;;8.54;80.29;98252.25;4126413;28;20251;-86
2023/03/29 03:49:05;;;;;;;4.88;2.55;;;;;;;8.58;79.56;98263.31;4106817;28;20330;-86
2023/03/29 03:51:14;;;;;;;2.65;2.30;;;;;;;8.62;78.58;98264.81;4137698;28;20237;-86
2023/03/29 03:53:17;;;;;;;2.70;2.50;;;;;;;8.66;78.31;98264.56;4125615;28;20702;-86
2023/03/29 03:55:43;;;;;;;4.55;2.90;;;;;;;8.70;79.50;98263.44;4130814;28;20667;-86
2023/03/29 03:57:50;;;;;;;3.85;3.45;;;;;;;8.72;79.31;98263.34;4125415;28;20208;-86
2023/03/29 03:59:55;;;;;;;3.65;3.08;;;;;;;8.73;79.98;98265.03;4132910;28;20228;-86
2023/03/29 04:02:15;;;;;;;4.20;2.88;;;;;;;8.75;80.00;98266.63;4120698;28;20302;-86
2023/03/29 04:04:19;;;;;;;4.75;2.97;;;;;;;8.76;80.52;98275.25;4138840;28;20249;-86
2023/03/29 04:06:45;;;;;;;3.78;2.65;;;;;;;8.74;80.43;98266.72;4114749;28;20208;-86
2023/03/29 04:09:08;;;;;;;3.20;2.70;;;;;;;8.74;81.56;98269.31;4130744;28;20204;-86
2023/03/29 04:11:16;;;;;;;5.78;2.88;;;;;;;8.73;80.64;98262.44;4102370;28;20684;-86
2023/03/29 04:13:20;;;;;;;3.60;2.70;;;;;;;8.74;81.59;98271.91;4116603;28;20776;-86
2023/03/29 04:16:02;;;;;;;3.95;2.97;;;;;;;8.75;81.67;98257.97;4123955;28;20234;-86
2023/03/29 04:18:06;;;;;;;3.25;2.50;;;;;;;8.72;81.42;98260.75;4128026;28;20262;-86
2023/03/29 04:20:16;;;;;;;3.20;2.90;;;;;;;8.73;81.93;98260.66;4121776;28;20231;-86
2023/03/29 04:22:20;;;;;;;2.50;2.27;;;;;;;8.74;81.59;98266.72;4126419;28;21501;-86
2023/03/29 04:24:24;;;;;;;3.72;2.90;;;;;;;8.74;80.91;98264.09;4136160;28;20713;-86
2023/03/29 04:26:49;;;;;;;4.05;2.85;;;;;;;8.73;82.08;98268.44;4124351;28;20214;-86
2023/03/29 04:28:57;;;;;;;3.25;2.70;;;;;;;8.73;81.68;98267.63;4112595;28;20208;-86
2023/03/29 04:31:14;;;;;;;3.95;2.95;;;;;;;8.73;81.01;98270.22;4107696;28;20759;-86
2023/03/29 04:33:40;;;;;;;3.90;3.20;;;;;;;8.69;80.80;98274.78;4112819;28;20623;-85
2023/03/29 04:35:44;;;;;;;6.35;3.60;;;;;;;8.67;82.27;98271.41;4108942;28;20248;-86
2023/03/29 04:37:53;;;;;;;6.53;3.37;;;;;;;8.67;82.36;98271.41;4127747;28;20204;-86
2023/03/29 04:39:59;;;;;;;4.68;3.40;;;;;;;8.67;81.96;98270.56;4109000;28;20701;-85
2023/03/29 04:42:07;;;;;;;5.13;3.58;;;;;;;8.67;81.69;98278.38;4126377;28;20234;-84
2023/03/29 04:44:11;;;;;;;4.80;3.70;;;;;;;8.64;81.39;98268.97;4107003;28;20212;-85
2023/03/29 04:46:15;;;;;;;4.20;3.22;;;;;;;8.66;82.15;98271.50;4109387;28;20209;-85
2023/03/29 04:48:37;;;;;;;4.57;3.50;;;;;;;8.65;82.40;98280.25;4125391;28;20210;-86
2023/03/29 04:50:40;;;;;;;6.03;3.55;;;;;;;8.64;82.38;98275.94;4141609;28;20314;-85
2023/03/29 04:52:44;;;;;;;3.88;3.45;;;;;;;8.63;81.42;98280.31;4122804;28;20212;-85
2023/03/29 04:54:47;;;;;;;6.65;4.20;;;;;;;8.63;82.05;98279.47;4121881;28;20204;-85
2023/03/29 04:57:02;;;;;;;4.10;3.70;;;;;;;8.61;82.85;98281.31;4124668;28;20208;-85
2023/03/29 04:59:33;;;;;;;4.53;3.90;;;;;;;8.60;82.05;98277.03;4123438;28;20212;-85
2023/03/29 05:01:41;;;;;;;3.67;3.35;;;;;;;8.57;83.09;98279.84;4112371;28;20200;-85
2023/03/29 05:03:44;;;;;;;5.47;3.83;;;;;;;8.58;84.15;98282.31;4110399;28;20204;-85
2023/03/29 05:05:53;;;;;;;5.67;3.77;;;;;;;8.60;82.84;98282.25;4126933;28;20215;-85
2023/03/29 05:07:56;;;;;;;3.55;3.08;;;;;;;8.59;81.94;98289.22;4125494;28;20755;-85
2023/03/29 05:10:08;;;;;;;5.85;3.22;;;;;;;8.60;83.15;98284.84;4114759;28;20282;-87
2023/03/29 05:12:11;;;;;;;4.22;3.22;;;;;;;8.59;83.87;98285.78;4126774;28;20767;-87
2023/03/29 05:14:26;;;;;;;5.93;3.30;;;;;;;8.58;83.31;98289.31;4096636;28;20204;-86
2023/03/29 05:16:31;;;;;;;4.88;4.05;;;;;;;8.61;83.10;98286.53;4119350;28;21429;-86
2023/03/29 05:18:35;;;;;;;5.10;3.80;;;;;;;8.62;83.44;98285.63;4129230;28;20198;-86
2023/03/29 05:20:39;;;;;;;6.25;3.50;;;;;;;8.64;83.62;98294.97;4134276;28;20203;-86
2023/03/29 05:22:43;;;;;;;4.30;3.00;;;;;;;8.63;83.83;98292.47;4108407;28;20244;-86
2023/03/29 05:24:53;;;;;;;3.88;3.08;;;;;;;8.61;83.16;98294.31;4130499;28;20208;-86
2023/03/29 05:26:57;;;;;;;5.60;3.90;;;;;;;8.61;84.02;98295.16;4109341;28;20783;-85
2023/03/29 05:29:03;;;;;;;4.25;3.45;;;;;;;8.63;82.34;98293.31;4099502;28;20215;-85
2023/03/29 05:31:06;;;;;;;4.00;3.40;;;;;;;8.62;82.27;98286.44;4115202;28;20334;-84
2023/03/29 05:33:13;;;;;;;4.30;3.28;;;;;;;8.64;83.14;98284.56;4132808;28;20243;-84
2023/03/29 05:35:16;;;;;;;4.30;3.50;;;;;;;8.66;83.92;98279.28;4126328;28;20238;-85
2023/03/29 05:37:19;;;;;;;5.93;3.30;;;;;;;8.67;82.73;98278.38;4105672;28;20288;-86
2023/03/29 05:39:28;;;;;;;7.45;3.83;;;;;;;8.66;82.92;98279.28;4109720;28;20698;-84
2023/03/29 05:41:32;;;;;;;5.45;4.30;;;;;;;8.67;83.48;98278.38;4113362;28;20212;-86
2023/03/29 05:43:38;;;;;;;7.40;3.83;;;;;;;8.67;83.24;98268.81;4123455;28;20238;-85
2023/03/29 05:45:42;;;;;;;5.30;3.50;;;;;;;8.68;83.78;98272.25;4141304;28;20203;-86
2023/03/29 05:47:45;;;;;;;4.10;3.05;;;;;;;8.68;83.63;98269.66;4119435;28;20215;-87
2023/03/29 05:49:50;;;;;;;10.60;7.18;;;;;;;8.67;83.92;98268.81;4107705;28;20753;-87
2023/03/29 05:51:57;;;;;;;7.50;3.85;;;;;;;8.71;85.35;98274.69;4130983;28;20297;-87
2023/03/29 05:54:02;;;;;;;4.57;3.45;;;;;;;8.72;85.14;98272.00;4114287;28;20208;-87
2023/03/29 05:56:07;;;;;;;4.88;3.72;;;;;;;8.74;84.46;98266.72;4123231;28;20247;-87
2023/03/29 05:58:12;;;;;;;5.05;3.65;;;;;;;8.78;83.19;98275.97;4109427;28;20200;-86
2023/03/29 06:00:22;;;;;;;5.00;4.00;;;;;;;8.80;83.81;98274.16;4112126;28;20219;-87
2023/03/29 06:02:35;;;;;;;6.60;4.50;;;;;;;8.84;84.03;98275.63;4105989;28;20787;-86
2023/03/29 06:04:39;;;;;;;7.53;4.80;;;;;;;8.86;84.09;98279.00;4138201;28;20231;-86
2023/03/29 06:06:53;;;;;;;6.78;4.05;;;;;;;8.86;84.44;98279.81;4125473;28;20210;-86
2023/03/29 06:08:57;;;;;;;5.25;3.90;;;;;;;8.86;83.67;98284.19;4119221;28;20219;-85
2023/03/29 06:11:14;;;;;;;6.95;4.20;;;;;;;8.85;83.71;98279.91;4114744;28;20765;-87
2023/03/29 06:13:37;;;;;;;7.80;3.88;;;;;;;8.84;84.09;98276.50;4127163;28;20248;-86
2023/03/29 06:15:40;;;;;;;5.88;3.75;;;;;;;8.84;83.71;98286.03;4106256;28;20216;-86
2023/03/29 06:17:45;;;;;;;4.90;3.80;;;;;;;8.86;83.55;98294.59;4136317;28;20235;-87
2023/03/29 06:19:51;;;;;;;9.60;4.10;;;;;;;8.86;83.40;98289.41;4112189;28;20205;-86
2023/03/29 06:21:59;;;;;;;7.85;4.47;;;;;;;8.88;84.63;98300.53;4107759;28;20204;-87
2023/03/29 06:24:05;;;;;;;7.93;5.90;;;;;;;8.90;84.39;98294.34;4118900;28;20212;-87
2023/03/29 06:26:14;;;;;;;7.32;5.30;;;;;;;8.94;83.92;98299.25;4112617;28;20216;-85
2023/03/29 06:28:18;;;;;;;6.47;3.90;;;;;;;8.96;82.82;98297.41;4117546;28;20200;-86
2023/03/29 06:30:21;;;;;;;5.57;3.90;;;;;;;9.00;83.06;98308.44;4121985;28;20229;-86
2023/03/29 06:32:28;;;;;;;10.18;7.68;;;;;;;9.04;83.78;98295.19;4111366;28;21275;-86
2023/03/29 06:34:36;;;;;;;8.82;6.45;;;;;;;9.06;83.61;98302.91;4110915;28;20240;-86
2023/03/29 06:37:17;;;;;;;19.42;11.25;;;;;;;9.08;84.11;98304.47;4116679;28;20212;-86
2023/03/29 06:39:21;;;;;;;28.38;13.13;;;;;;;9.15;84.36;98310.16;4106861;28;20279;-89
2023/03/29 06:41:45;;;;;;;7.07;4.68;;;;;;;9.15;84.83;98297.16;4125255;28;20258;-88
2023/03/29 06:44:20;;;;;;;5.80;4.40;;;;;;;9.16;84.66;98315.28;4114144;28;20219;-86
2023/03/29 06:46:36;;;;;;;6.22;4.25;;;;;;;9.16;83.33;98317.88;4122595;28;20647;-86
2023/03/29 06:48:43;;;;;;;15.80;9.90;;;;;;;9.18;83.88;98310.81;4138161;28;20266;-88
2023/03/29 06:50:47;;;;;;;17.63;8.50;;;;;;;9.23;83.66;98324.41;4099813;28;20237;-88
2023/03/29 06:52:53;;;;;;;36.03;15.10;;;;;;;9.27;84.17;98336.28;4107394;28;20660;-87
2023/03/29 06:54:56;;;;;;;46.20;20.23;;;;;;;9.28;83.33;98324.13;4109189;28;20208;-88
2023/03/29 06:57:01;;;;;;;23.03;13.03;;;;;;;9.30;83.93;98328.28;4126617;28;20986;-87
2023/03/29 06:59:09;;;;;;;31.80;15.15;;;;;;;9.34;83.24;98329.78;4107195;28;20632;-89
2023/03/29 07:01:27;;;;;;;31.17;16.30;;;;;;;9.35;83.44;98334.09;4126718;28;20211;-88
2023/03/29 07:03:44;;;;;;;23.02;12.65;;;;;;;9.29;82.98;98334.44;4122158;28;20706;-89
2023/03/29 07:05:50;;;;;;;45.20;22.90;;;;;;;9.34;83.38;98340.22;4122629;28;20247;-90
2023/03/29 07:07:59;;;;;;;38.25;19.60;;;;;;;9.39;84.08;98338.97;4123738;28;21016;-90
2023/03/29 07:10:18;;;;;;;24.70;14.60;;;;;;;9.48;83.76;98333.22;4122207;28;20208;-84
2023/03/29 07:12:43;;;;;;;22.50;9.90;;;;;;;9.53;83.12;98336.41;4115148;28;21050;-82
2023/03/29 07:14:47;;;;;;;14.60;9.27;;;;;;;9.53;82.14;98338.16;4105381;28;20734;-84
2023/03/29 07:16:51;;;;;;;18.77;11.73;;;;;;;9.57;83.26;98337.06;4124888;28;20312;-84
2023/03/29 07:19:02;;;;;;;22.17;12.97;;;;;;;9.62;82.15;98332.41;4130982;28;20631;-84
2023/03/29 07:21:29;;;;;;;22.47;12.97;;;;;;;9.69;82.73;98333.72;4128790;28;20910;-84
2023/03/29 07:23:33;;;;;;;17.48;10.98;;;;;;;9.75;83.35;98335.94;4124902;28;20636;-84
2023/03/29 07:25:37;;;;;;;22.67;11.80;;;;;;;9.81;83.15;98346.00;4121150;28;20234;-84
2023/03/29 07:27:41;;;;;;;20.07;12.53;;;;;;;9.84;83.30;98345.81;4119972;28;20746;-84
2023/03/29 07:29:45;;;;;;;18.95;11.65;;;;;;;9.89;84.01;98344.56;4120689;28;20647;-84
2023/03/29 07:31:49;;;;;;;15.60;10.00;;;;;;;9.94;83.76;98342.56;4106601;28;20292;-84
2023/03/29 07:34:10;;;;;;;18.43;9.97;;;;;;;9.99;83.36;98346.53;4126558;28;20643;-84
2023/03/29 07:36:14;;;;;;;10.80;7.07;;;;;;;10.06;83.80;98352.25;4134517;28;20634;-84
2023/03/29 07:38:17;;;;;;;12.03;6.57;;;;;;;10.11;82.46;98345.78;4117952;28;20639;-84
2023/03/29 07:40:26;;;;;;;10.50;7.10;;;;;;;10.17;82.94;98350.63;4123730;28;20672;-84
2023/03/29 07:42:35;;;;;;;12.60;5.47;;;;;;;10.22;83.09;98353.75;4137437;28;20638;-84
2023/03/29 07:44:40;;;;;;;6.00;4.70;;;;;;;10.28;81.83;98363.81;4127876;28;20658;-84
2023/03/29 07:46:43;;;;;;;5.43;4.70;;;;;;;10.35;80.69;98365.09;4126557;28;20234;-84
2023/03/29 07:48:47;;;;;;;12.40;7.70;;;;;;;10.41;80.47;98359.50;4137091;28;21313;-84
2023/03/29 07:50:50;;;;;;;19.67;12.30;;;;;;;10.46;80.25;98362.66;4118018;28;20723;-84
2023/03/29 07:52:59;;;;;;;17.67;10.53;;;;;;;10.53;80.22;98361.34;4112914;28;20709;-84
2023/03/29 07:55:04;;;;;;;11.73;7.13;;;;;;;10.60;80.00;98360.84;4134264;28;20653;-84
2023/03/29 07:57:26;;;;;;;11.50;7.40;;;;;;;10.67;79.28;98367.31;4110962;28;21192;-84
2023/03/29 07:59:32;;;;;;;9.13;6.17;;;;;;;10.74;80.16;98368.63;4108010;28;20648;-84
2023/03/29 08:01:43;;;;;;;6.00;3.23;;;;;;;10.79;79.31;98379.59;4122010;28;20839;-84
2023/03/29 08:04:07;;;;;;;4.73;2.73;;;;;;;10.84;78.08;98378.38;4138214;28;20659;-84
2023/03/29 08:06:29;;;;;;;4.40;3.00;;;;;;;10.87;78.50;98372.94;4118993;28;20650;-84
2023/03/29 08:08:33;;;;;;;5.60;3.50;;;;;;;10.92;77.99;98378.69;4119366;28;20643;-84
2023/03/29 08:10:41;;;;;;;4.00;3.60;;;;;;;10.95;78.50;98381.09;4138323;28;20631;-84
2023/03/29 08:13:08;;;;;;;5.00;3.50;;;;;;;11.01;78.61;98372.03;4119330;28;20655;-84
2023/03/29 08:15:22;;;;;;;3.93;3.30;;;;;;;11.05;78.87;98378.72;4103841;28;20989;-84
2023/03/29 08:17:29;;;;;;;3.90;3.23;;;;;;;11.07;75.82;98371.66;4119040;28;20646;-84
2023/03/29 08:19:32;;;;;;;6.37;3.80;;;;;;;11.13;77.01;98372.06;4106924;28;20644;-84
2023/03/29 08:21:39;;;;;;;4.30;3.07;;;;;;;11.19;77.05;98369.06;4134368;28;21279;-84
2023/03/29 08:23:43;;;;;;;5.07;3.67;;;;;;;11.26;75.04;98367.72;4132137;28;20673;-84
2023/03/29 08:25:53;;;;;;;6.20;3.80;;;;;;;11.31;75.73;98365.63;4126131;28;20698;-84
2023/03/29 08:27:56;;;;;;;6.90;4.40;;;;;;;11.39;76.67;98368.56;4119569;28;20727;-84
2023/03/29 08:30:13;;;;;;;4.23;3.70;;;;;;;11.47;76.48;98368.91;4112036;28;20624;-84
2023/03/29 08:32:16;;;;;;;8.07;4.10;;;;;;;11.54;76.52;98371.00;4124133;28;20670;-84
2023/03/29 08:34:22;;;;;;;4.20;3.40;;;;;;;11.59;77.39;98374.16;4111079;28;20656;-84
2023/03/29 08:36:40;;;;;;;35.77;23.57;;;;;;;11.64;76.83;98372.06;4121259;28;20622;-84
2023/03/29 08:38:55;;;;;;;8.67;5.37;;;;;;;11.71;75.66;98377.69;4121109;28;20635;-84
2023/03/29 08:40:58;;;;;;;4.60;3.37;;;;;;;11.79;76.36;98371.00;4125440;28;20639;-84
2023/03/29 08:43:22;;;;;;;4.97;3.80;;;;;;;11.88;74.92;98379.06;4123481;28;20682;-84
2023/03/29 08:45:51;;;;;;;6.13;3.47;;;;;;;11.93;74.46;98382.19;4123467;28;20668;-83
2023/03/29 08:47:59;;;;;;;5.30;3.63;;;;;;;12.01;74.06;98384.25;4136921;28;20765;-84
2023/03/29 08:50:03;;;;;;;4.73;3.50;;;;;;;12.07;74.19;98379.47;4109378;28;20640;-84
2023/03/29 08:52:21;;;;;;;4.40;3.33;;;;;;;12.13;74.27;98375.56;4109403;28;20621;-84
2023/03/29 08:54:26;;;;;;;5.07;3.33;;;;;;;12.23;72.27;98383.50;4119085;28;20643;-85
2023/03/29 08:57:03;;;;;;;4.80;3.90;;;;;;;12.36;72.41;98386.94;4111446;28;20782;-84
2023/03/29 08:59:18;;;;;;;4.23;3.77;;;;;;;12.47;73.15;98386.16;4129704;28;20627;-84
2023/03/29 09:01:25;;;;;;;8.13;3.70;;;;;;;12.53;74.13;98383.94;4118630;28;20638;-84
2023/03/29 09:03:32;;;;;;;4.30;3.73;;;;;;;12.58;71.71;98381.00;4133737;28;20721;-84
2023/03/29 09:05:46;;;;;;;4.70;3.57;;;;;;;12.60;73.45;98385.19;4119536;28;21244;-84
2023/03/29 09:07:54;;;;;;;4.87;3.80;;;;;;;12.57;73.25;98379.31;4125274;28;21060;-84
2023/03/29 09:09:58;;;;;;;4.83;3.90;;;;;;;12.56;72.36;98378.50;4124078;28;21237;-85
2023/03/29 09:12:24;;;;;;;4.83;3.37;;;;;;;12.55;72.69;98370.75;4106296;28;20656;-85
2023/03/29 09:14:46;;;;;;;5.30;3.40;;;;;;;12.57;72.34;98363.63;4132420;28;20686;-84
2023/03/29 09:16:56;;;;;;;4.90;3.33;;;;;;;12.58;71.09;98360.06;4119322;28;20723;-84
2023/03/29 09:19:06;;;;;;;4.97;3.07;;;;;;;12.63;73.16;98365.78;4126948;28;20679;-84
2023/03/29 09:21:16;;;;;;;6.33;3.33;;;;;;;12.70;71.37;98360.88;4110252;28;21071;-84
2023/03/29 09:23:45;;;;;;;3.90;3.40;;;;;;;12.81;72.92;98363.53;4135202;28;20638;-84
2023/03/29 09:26:11;;;;;;;3.30;3.00;;;;;;;12.95;71.77;98371.25;4121595;28;21011;-84
2023/03/29 09:28:37;;;;;;;5.10;3.63;;;;;;;13.07;72.38;98365.09;4126716;28;20746;-84
2023/03/29 09:30:41;;;;;;;4.00;3.23;;;;;;;13.16;70.93;98367.03;4125997;28;21308;-84
2023/03/29 09:32:52;;;;;;;5.93;3.37;;;;;;;13.25;71.17;98368.97;4102733;28;20706;-84
2023/03/29 09:35:13;;;;;;;4.10;3.37;;;;;;;13.37;72.51;98366.28;4140960;28;20605;-84
2023/03/29 09:37:23;;;;;;;6.37;3.00;;;;;;;13.44;70.63;98361.41;4115694;28;20641;-84
2023/03/29 09:39:27;;;;;;;4.23;2.80;;;;;;;13.54;70.29;98371.06;4125985;28;20640;-84
2023/03/29 09:41:41;;;;;;;8.57;7.70;;;;;;;13.73;72.01;98364.31;4136610;28;20642;-84
2023/03/29 09:43:47;;;;;;;5.13;3.30;;;;;;;13.91;71.48;98369.97;4130387;28;20783;-84
2023/03/29 09:45:57;;;;;;;4.40;2.83;;;;;;;13.97;70.21;98367.69;4127354;28;20636;-84
2023/03/29 09:48:06;;;;;;;3.03;2.43;;;;;;;14.09;69.90;98372.00;4129958;28;20662;-84
2023/03/29 09:50:12;;;;;;;4.63;2.57;;;;;;;14.23;69.03;98366.50;4113877;28;20716;-84
2023/03/29 09:52:32;;;;;;;3.40;2.90;;;;;;;14.31;68.21;98364.13;4117861;28;20624;-84
2023/03/29 09:54:47;;;;;;;3.10;2.63;;;;;;;14.40;67.71;98366.00;4103440;28;20753;-85
2023/03/29 09:57:19;;;;;;;3.10;2.57;;;;;;;14.50;67.81;98359.09;4105929;28;21217;-85
2023/03/29 09:59:23;;;;;;;5.30;2.30;;;;;;;14.63;68.21;98353.56;4118199;28;21052;-84
2023/03/29 10:01:35;;;;;;;3.40;2.37;;;;;;;14.74;66.13;98358.78;4124293;28;20738;-84
2023/03/29 10:03:42;;;;;;;6.47;2.33;;;;;;;14.83;65.29;98352.78;4120511;28;20695;-85
2023/03/29 10:05:50;;;;;;;3.20;2.70;;;;;;;15.00;66.85;98344.38;4121506;28;20700;-85
2023/03/29 10:07:59;;;;;;;4.70;2.40;;;;;;;15.18;65.05;98341.13;4124592;28;21036;-85
2023/03/29 10:10:07;;;;;;;3.80;2.73;;;;;;;15.24;65.67;98347.63;4109112;28;20731;-85
2023/03/29 10:12:11;;;;;;;4.90;2.63;;;;;;;15.26;65.81;98348.34;4122936;28;20658;-84